sensor_id;sensor_type;location;lat;lon;timestamp;P1;durP1;ratioP1;P2;durP2;ratioP2
77880;SDS011;67077;50.298;18.996;2023-03-01T00:01:18;198.10;;;72.30;;
77880;SDS011;67077;50.298;18.996;2023-03-01T00:03:47;198.50;;;73.30;;
77880;SDS011;67077;50.298;18.996;2023-03-01T00:06:14;200.00;;;72.60;;
77880;SDS011;67077;50.298;18.996;2023-03-01T00:08:41;187.00;;;68.30;;
77880;SDS011;67077;50.298;18.996;2023-03-01T00:11:10;183.20;;;65.40;;
77880;SDS011;67077;50.298;18.996;2023-03-01T00:13:43;159.80;;;59.80;;
77880;SDS011;67077;50.298;18.996;2023-03-01T00:16:15;171.30;;;61.50;;
77880;SDS011;67077;50.298;18.996;2023-03-01T00:18:45;176.60;;;65.20;;
77880;SDS011;67077;50.298;18.996;2023-03-01T00:21:12;165.20;;;61.90;;
77880;SDS011;67077;50.298;18.996;2023-03-01T00:23:39;157.20;;;58.20;;
77880;SDS011;67077;50.298;18.996;2023-03-01T00:26:11;147.70;;;57.00;;
77880;SDS011;67077;50.298;18.996;2023-03-01T00:28:40;163.00;;;59.30;;
77880;SDS011;67077;50.298;18.996;2023-03-01T00:31:08;163.80;;;60.80;;
77880;SDS011;67077;50.298;18.996;2023-03-01T00:33:37;150.90;;;55.30;;
77880;SDS011;67077;50.298;18.996;2023-03-01T00:36:05;159.40;;;59.30;;
77880;SDS011;67077;50.298;18.996;2023-03-01T00:38:35;139.60;;;52.50;;
77880;SDS011;67077;50.298;18.996;2023-03-01T00:41:04;139.80;;;53.10;;
77880;SDS011;67077;50.298;18.996;2023-03-01T00:43:36;146.70;;;56.90;;
77880;SDS011;67077;50.298;18.996;2023-03-01T00:46:08;151.10;;;54.80;;
77880;SDS011;67077;50.298;18.996;2023-03-01T00:52:17;141.40;;;50.50;;
77880;SDS011;67077;50.298;18.996;2023-03-01T00:54:43;153.60;;;56.80;;
77880;SDS011;67077;50.298;18.996;2023-03-01T00:57:10;151.20;;;53.70;;
77880;SDS011;67077;50.298;18.996;2023-03-01T00:59:37;135.80;;;50.50;;
77880;SDS011;67077;50.298;18.996;2023-03-01T01:02:03;138.60;;;53.30;;
77880;SDS011;67077;50.298;18.996;2023-03-01T01:04:33;136.40;;;48.90;;
77880;SDS011;67077;50.298;18.996;2023-03-01T01:07:00;145.80;;;52.60;;
77880;SDS011;67077;50.298;18.996;2023-03-01T01:09:27;136.90;;;51.90;;
77880;SDS011;67077;50.298;18.996;2023-03-01T01:11:53;139.40;;;52.80;;
77880;SDS011;67077;50.298;18.996;2023-03-01T01:14:20;134.80;;;52.20;;
77880;SDS011;67077;50.298;18.996;2023-03-01T01:16:47;137.50;;;51.50;;
77880;SDS011;67077;50.298;18.996;2023-03-01T01:19:14;139.10;;;51.80;;
77880;SDS011;67077;50.298;18.996;2023-03-01T01:21:41;161.10;;;60.40;;
77880;SDS011;67077;50.298;18.996;2023-03-01T01:24:11;152.70;;;56.70;;
77880;SDS011;67077;50.298;18.996;2023-03-01T01:26:38;157.40;;;58.60;;
77880;SDS011;67077;50.298;18.996;2023-03-01T01:29:05;163.40;;;58.50;;
77880;SDS011;67077;50.298;18.996;2023-03-01T01:31:33;157.70;;;56.70;;
77880;SDS011;67077;50.298;18.996;2023-03-01T01:34:02;148.20;;;55.70;;
77880;SDS011;67077;50.298;18.996;2023-03-01T01:36:32;141.10;;;56.50;;
77880;SDS011;67077;50.298;18.996;2023-03-01T01:39:00;149.90;;;56.80;;
77880;SDS011;67077;50.298;18.996;2023-03-01T01:41:28;151.00;;;58.00;;
77880;SDS011;67077;50.298;18.996;2023-03-01T01:44:13;157.30;;;58.60;;
77880;SDS011;67077;50.298;18.996;2023-03-01T01:52:26;149.80;;;56.40;;
77880;SDS011;67077;50.298;18.996;2023-03-01T01:55:03;151.90;;;58.00;;
77880;SDS011;67077;50.298;18.996;2023-03-01T01:57:32;169.50;;;62.00;;
77880;SDS011;67077;50.298;18.996;2023-03-01T02:00:09;165.20;;;60.40;;
77880;SDS011;67077;50.298;18.996;2023-03-01T02:02:39;155.40;;;60.30;;
77880;SDS011;67077;50.298;18.996;2023-03-01T02:05:10;155.70;;;59.10;;
77880;SDS011;67077;50.298;18.996;2023-03-01T02:07:43;160.20;;;59.70;;
77880;SDS011;67077;50.298;18.996;2023-03-01T02:10:12;145.60;;;55.60;;
77880;SDS011;67077;50.298;18.996;2023-03-01T02:12:38;162.00;;;59.90;;
77880;SDS011;67077;50.298;18.996;2023-03-01T02:15:05;153.90;;;58.10;;
77880;SDS011;67077;50.298;18.996;2023-03-01T02:17:32;148.80;;;57.00;;
77880;SDS011;67077;50.298;18.996;2023-03-01T02:22:34;154.30;;;56.60;;
77880;SDS011;67077;50.298;18.996;2023-03-01T02:28:08;148.30;;;56.70;;
77880;SDS011;67077;50.298;18.996;2023-03-01T02:30:40;147.20;;;55.50;;
77880;SDS011;67077;50.298;18.996;2023-03-01T02:33:31;131.50;;;51.10;;
77880;SDS011;67077;50.298;18.996;2023-03-01T02:36:00;132.50;;;51.70;;
77880;SDS011;67077;50.298;18.996;2023-03-01T02:38:30;136.30;;;52.50;;
77880;SDS011;67077;50.298;18.996;2023-03-01T02:40:57;148.00;;;56.00;;
77880;SDS011;67077;50.298;18.996;2023-03-01T02:43:27;131.90;;;50.50;;
77880;SDS011;67077;50.298;18.996;2023-03-01T02:45:58;139.00;;;54.30;;
77880;SDS011;67077;50.298;18.996;2023-03-01T02:48:38;151.20;;;55.90;;
77880;SDS011;67077;50.298;18.996;2023-03-01T02:51:14;147.00;;;55.00;;
77880;SDS011;67077;50.298;18.996;2023-03-01T02:56:31;134.90;;;53.60;;
77880;SDS011;67077;50.298;18.996;2023-03-01T02:58:57;147.10;;;55.60;;
77880;SDS011;67077;50.298;18.996;2023-03-01T03:01:27;131.10;;;50.50;;
77880;SDS011;67077;50.298;18.996;2023-03-01T03:04:04;137.50;;;52.80;;
77880;SDS011;67077;50.298;18.996;2023-03-01T03:06:36;132.10;;;52.40;;
77880;SDS011;67077;50.298;18.996;2023-03-01T03:09:03;147.90;;;56.60;;
77880;SDS011;67077;50.298;18.996;2023-03-01T03:11:31;131.40;;;47.80;;
77880;SDS011;67077;50.298;18.996;2023-03-01T03:13:58;140.10;;;53.00;;
77880;SDS011;67077;50.298;18.996;2023-03-01T03:16:25;126.60;;;48.80;;
77880;SDS011;67077;50.298;18.996;2023-03-01T03:18:51;127.00;;;50.20;;
77880;SDS011;67077;50.298;18.996;2023-03-01T03:21:19;116.40;;;47.40;;
77880;SDS011;67077;50.298;18.996;2023-03-01T03:23:46;112.70;;;45.30;;
77880;SDS011;67077;50.298;18.996;2023-03-01T03:26:12;105.50;;;42.40;;
77880;SDS011;67077;50.298;18.996;2023-03-01T03:28:41;100.40;;;41.40;;
77880;SDS011;67077;50.298;18.996;2023-03-01T03:31:08;103.70;;;41.30;;
77880;SDS011;67077;50.298;18.996;2023-03-01T03:33:36;101.40;;;41.30;;
77880;SDS011;67077;50.298;18.996;2023-03-01T03:36:04;112.10;;;44.50;;
77880;SDS011;67077;50.298;18.996;2023-03-01T03:38:31;114.50;;;45.70;;
77880;SDS011;67077;50.298;18.996;2023-03-01T03:41:02;97.30;;;40.60;;
77880;SDS011;67077;50.298;18.996;2023-03-01T03:43:36;90.30;;;37.20;;
77880;SDS011;67077;50.298;18.996;2023-03-01T03:46:05;89.80;;;36.70;;
77880;SDS011;67077;50.298;18.996;2023-03-01T03:48:36;90.90;;;37.10;;
77880;SDS011;67077;50.298;18.996;2023-03-01T03:51:04;112.60;;;47.00;;
77880;SDS011;67077;50.298;18.996;2023-03-01T03:53:32;120.50;;;47.40;;
77880;SDS011;67077;50.298;18.996;2023-03-01T03:55:58;140.10;;;56.30;;
77880;SDS011;67077;50.298;18.996;2023-03-01T03:58:25;138.70;;;54.30;;
77880;SDS011;67077;50.298;18.996;2023-03-01T04:00:53;136.80;;;53.10;;
77880;SDS011;67077;50.298;18.996;2023-03-01T04:03:23;130.00;;;50.80;;
77880;SDS011;67077;50.298;18.996;2023-03-01T04:05:50;124.90;;;50.30;;
77880;SDS011;67077;50.298;18.996;2023-03-01T04:08:21;113.40;;;45.90;;
77880;SDS011;67077;50.298;18.996;2023-03-01T04:10:50;117.70;;;47.40;;
77880;SDS011;67077;50.298;18.996;2023-03-01T04:13:19;123.10;;;47.80;;
77880;SDS011;67077;50.298;18.996;2023-03-01T04:15:48;116.10;;;47.00;;
77880;SDS011;67077;50.298;18.996;2023-03-01T04:18:17;108.70;;;44.10;;
77880;SDS011;67077;50.298;18.996;2023-03-01T04:20:45;125.10;;;50.80;;
77880;SDS011;67077;50.298;18.996;2023-03-01T04:23:14;123.50;;;49.10;;
77880;SDS011;67077;50.298;18.996;2023-03-01T04:25:53;118.80;;;47.60;;
77880;SDS011;67077;50.298;18.996;2023-03-01T04:30:54;103.30;;;43.70;;
77880;SDS011;67077;50.298;18.996;2023-03-01T04:33:23;107.90;;;44.20;;
77880;SDS011;67077;50.298;18.996;2023-03-01T04:35:51;98.80;;;40.00;;
77880;SDS011;67077;50.298;18.996;2023-03-01T04:38:19;99.00;;;41.10;;
77880;SDS011;67077;50.298;18.996;2023-03-01T04:40:46;103.90;;;41.80;;
77880;SDS011;67077;50.298;18.996;2023-03-01T04:43:12;93.70;;;38.30;;
77880;SDS011;67077;50.298;18.996;2023-03-01T04:45:42;94.90;;;38.90;;
77880;SDS011;67077;50.298;18.996;2023-03-01T04:48:09;80.10;;;33.90;;
77880;SDS011;67077;50.298;18.996;2023-03-01T04:50:36;81.40;;;33.30;;
77880;SDS011;67077;50.298;18.996;2023-03-01T04:53:02;78.80;;;31.20;;
77880;SDS011;67077;50.298;18.996;2023-03-01T04:55:29;90.30;;;35.30;;
77880;SDS011;67077;50.298;18.996;2023-03-01T04:57:56;88.90;;;35.20;;
77880;SDS011;67077;50.298;18.996;2023-03-01T05:00:33;91.20;;;35.90;;
77880;SDS011;67077;50.298;18.996;2023-03-01T05:03:03;90.90;;;36.70;;
77880;SDS011;67077;50.298;18.996;2023-03-01T05:05:32;89.20;;;37.70;;
77880;SDS011;67077;50.298;18.996;2023-03-01T05:08:01;113.40;;;45.10;;
77880;SDS011;67077;50.298;18.996;2023-03-01T05:10:31;91.30;;;38.40;;
77880;SDS011;67077;50.298;18.996;2023-03-01T05:12:59;89.90;;;39.10;;
77880;SDS011;67077;50.298;18.996;2023-03-01T05:15:27;84.60;;;34.30;;
77880;SDS011;67077;50.298;18.996;2023-03-01T05:17:56;86.70;;;37.50;;
77880;SDS011;67077;50.298;18.996;2023-03-01T05:20:26;90.00;;;36.60;;
77880;SDS011;67077;50.298;18.996;2023-03-01T05:22:56;92.10;;;35.90;;
77880;SDS011;67077;50.298;18.996;2023-03-01T05:25:25;90.90;;;38.60;;
77880;SDS011;67077;50.298;18.996;2023-03-01T05:27:53;96.70;;;40.60;;
77880;SDS011;67077;50.298;18.996;2023-03-01T05:30:19;106.50;;;42.60;;
77880;SDS011;67077;50.298;18.996;2023-03-01T05:32:48;103.50;;;43.10;;
77880;SDS011;67077;50.298;18.996;2023-03-01T05:35:21;110.30;;;44.70;;
77880;SDS011;67077;50.298;18.996;2023-03-01T05:37:48;96.40;;;41.20;;
77880;SDS011;67077;50.298;18.996;2023-03-01T05:40:16;90.50;;;37.20;;
77880;SDS011;67077;50.298;18.996;2023-03-01T05:42:49;114.80;;;46.80;;
77880;SDS011;67077;50.298;18.996;2023-03-01T05:45:20;107.60;;;44.70;;
77880;SDS011;67077;50.298;18.996;2023-03-01T05:47:48;109.50;;;42.60;;
77880;SDS011;67077;50.298;18.996;2023-03-01T05:50:19;143.30;;;50.70;;
77880;SDS011;67077;50.298;18.996;2023-03-01T05:52:50;131.80;;;50.10;;
77880;SDS011;67077;50.298;18.996;2023-03-01T05:55:19;141.40;;;53.00;;
77880;SDS011;67077;50.298;18.996;2023-03-01T05:57:48;145.80;;;55.80;;
77880;SDS011;67077;50.298;18.996;2023-03-01T06:00:17;136.40;;;53.20;;
77880;SDS011;67077;50.298;18.996;2023-03-01T06:02:45;144.70;;;54.50;;
77880;SDS011;67077;50.298;18.996;2023-03-01T06:05:12;123.60;;;49.90;;
77880;SDS011;67077;50.298;18.996;2023-03-01T06:07:41;134.40;;;52.10;;
77880;SDS011;67077;50.298;18.996;2023-03-01T06:10:08;117.10;;;47.20;;
77880;SDS011;67077;50.298;18.996;2023-03-01T06:12:37;120.30;;;49.00;;
77880;SDS011;67077;50.298;18.996;2023-03-01T06:15:05;132.30;;;49.80;;
77880;SDS011;67077;50.298;18.996;2023-03-01T06:17:33;137.80;;;51.90;;
77880;SDS011;67077;50.298;18.996;2023-03-01T06:20:04;134.80;;;50.40;;
77880;SDS011;67077;50.298;18.996;2023-03-01T06:22:34;126.60;;;45.80;;
77880;SDS011;67077;50.298;18.996;2023-03-01T06:25:01;114.20;;;44.50;;
77880;SDS011;67077;50.298;18.996;2023-03-01T06:27:28;128.30;;;49.00;;
77880;SDS011;67077;50.298;18.996;2023-03-01T06:29:54;123.90;;;46.90;;
77880;SDS011;67077;50.298;18.996;2023-03-01T06:32:21;117.30;;;46.70;;
77880;SDS011;67077;50.298;18.996;2023-03-01T06:34:48;122.00;;;50.30;;
77880;SDS011;67077;50.298;18.996;2023-03-01T06:37:16;121.50;;;49.30;;
77880;SDS011;67077;50.298;18.996;2023-03-01T06:39:46;123.10;;;48.70;;
77880;SDS011;67077;50.298;18.996;2023-03-01T06:42:12;119.70;;;48.20;;
77880;SDS011;67077;50.298;18.996;2023-03-01T06:44:40;122.60;;;49.10;;
77880;SDS011;67077;50.298;18.996;2023-03-01T06:47:07;121.30;;;46.80;;
77880;SDS011;67077;50.298;18.996;2023-03-01T06:49:34;114.20;;;46.00;;
77880;SDS011;67077;50.298;18.996;2023-03-01T06:52:00;123.20;;;50.30;;
77880;SDS011;67077;50.298;18.996;2023-03-01T06:54:30;115.00;;;45.50;;
77880;SDS011;67077;50.298;18.996;2023-03-01T06:56:56;126.10;;;52.40;;
77880;SDS011;67077;50.298;18.996;2023-03-01T06:59:23;134.20;;;53.00;;
77880;SDS011;67077;50.298;18.996;2023-03-01T07:01:50;139.40;;;53.50;;
77880;SDS011;67077;50.298;18.996;2023-03-01T07:04:17;125.00;;;51.10;;
77880;SDS011;67077;50.298;18.996;2023-03-01T07:06:43;141.80;;;55.10;;
77880;SDS011;67077;50.298;18.996;2023-03-01T07:09:11;138.20;;;56.10;;
77880;SDS011;67077;50.298;18.996;2023-03-01T07:11:37;135.90;;;56.50;;
77880;SDS011;67077;50.298;18.996;2023-03-01T07:14:04;155.00;;;62.80;;
77880;SDS011;67077;50.298;18.996;2023-03-01T07:16:31;148.80;;;60.70;;
77880;SDS011;67077;50.298;18.996;2023-03-01T07:18:58;152.70;;;59.00;;
77880;SDS011;67077;50.298;18.996;2023-03-01T07:21:25;149.30;;;57.80;;
77880;SDS011;67077;50.298;18.996;2023-03-01T07:23:52;146.20;;;59.80;;
77880;SDS011;67077;50.298;18.996;2023-03-01T07:26:30;141.20;;;56.40;;
77880;SDS011;67077;50.298;18.996;2023-03-01T07:29:00;140.90;;;58.40;;
77880;SDS011;67077;50.298;18.996;2023-03-01T07:31:30;141.20;;;58.00;;
77880;SDS011;67077;50.298;18.996;2023-03-01T07:34:03;134.30;;;54.10;;
77880;SDS011;67077;50.298;18.996;2023-03-01T07:36:36;132.30;;;53.10;;
77880;SDS011;67077;50.298;18.996;2023-03-01T07:39:10;130.30;;;52.10;;
77880;SDS011;67077;50.298;18.996;2023-03-01T07:42:03;131.10;;;52.50;;
77880;SDS011;67077;50.298;18.996;2023-03-01T07:44:47;103.00;;;42.20;;
77880;SDS011;67077;50.298;18.996;2023-03-01T07:47:26;101.60;;;42.60;;
77880;SDS011;67077;50.298;18.996;2023-03-01T07:50:22;108.50;;;44.40;;
77880;SDS011;67077;50.298;18.996;2023-03-01T07:53:09;107.80;;;43.90;;
77880;SDS011;67077;50.298;18.996;2023-03-01T07:58:02;95.60;;;39.30;;
77880;SDS011;67077;50.298;18.996;2023-03-01T08:00:49;94.00;;;37.70;;
77880;SDS011;67077;50.298;18.996;2023-03-01T08:03:27;112.10;;;46.70;;
77880;SDS011;67077;50.298;18.996;2023-03-01T08:05:59;104.60;;;44.60;;
77880;SDS011;67077;50.298;18.996;2023-03-01T08:44:00;84.30;;;37.60;;
77880;SDS011;67077;50.298;18.996;2023-03-01T08:49:46;66.00;;;28.90;;
77880;SDS011;67077;50.298;18.996;2023-03-01T08:52:19;43.30;;;20.80;;
77880;SDS011;67077;50.298;18.996;2023-03-01T08:55:29;52.60;;;24.00;;
77880;SDS011;67077;50.298;18.996;2023-03-01T08:58:05;56.10;;;25.20;;
77880;SDS011;67077;50.298;18.996;2023-03-01T09:04:49;72.00;;;30.60;;
77880;SDS011;67077;50.298;18.996;2023-03-01T09:07:26;72.10;;;31.70;;
77880;SDS011;67077;50.298;18.996;2023-03-01T09:10:30;53.90;;;23.30;;
77880;SDS011;67077;50.298;18.996;2023-03-01T09:12:59;52.20;;;25.70;;
77880;SDS011;67077;50.298;18.996;2023-03-01T09:15:38;45.40;;;21.40;;
77880;SDS011;67077;50.298;18.996;2023-03-01T09:18:06;48.40;;;23.90;;
77880;SDS011;67077;50.298;18.996;2023-03-01T09:21:20;47.60;;;23.70;;
77880;SDS011;67077;50.298;18.996;2023-03-01T09:23:53;49.40;;;22.60;;
77880;SDS011;67077;50.298;18.996;2023-03-01T09:26:30;43.20;;;21.20;;
77880;SDS011;67077;50.298;18.996;2023-03-01T09:29:00;43.60;;;20.00;;
77880;SDS011;67077;50.298;18.996;2023-03-01T09:31:30;51.00;;;24.00;;
77880;SDS011;67077;50.298;18.996;2023-03-01T09:34:09;40.30;;;19.30;;
77880;SDS011;67077;50.298;18.996;2023-03-01T09:37:11;48.00;;;22.30;;
77880;SDS011;67077;50.298;18.996;2023-03-01T09:39:55;47.70;;;23.40;;
77880;SDS011;67077;50.298;18.996;2023-03-01T09:42:55;51.50;;;23.60;;
77880;SDS011;67077;50.298;18.996;2023-03-01T09:52:06;47.80;;;22.90;;
77880;SDS011;67077;50.298;18.996;2023-03-01T09:55:14;55.00;;;25.20;;
77880;SDS011;67077;50.298;18.996;2023-03-01T09:57:50;52.30;;;24.10;;
77880;SDS011;67077;50.298;18.996;2023-03-01T10:03:36;51.60;;;24.10;;
77880;SDS011;67077;50.298;18.996;2023-03-01T10:06:36;50.40;;;24.00;;
77880;SDS011;67077;50.298;18.996;2023-03-01T10:09:12;51.80;;;25.00;;
77880;SDS011;67077;50.298;18.996;2023-03-01T10:11:55;57.90;;;26.50;;
77880;SDS011;67077;50.298;18.996;2023-03-01T10:14:33;61.00;;;27.70;;
77880;SDS011;67077;50.298;18.996;2023-03-01T10:17:30;58.40;;;26.20;;
77880;SDS011;67077;50.298;18.996;2023-03-01T10:20:45;56.90;;;27.00;;
77880;SDS011;67077;50.298;18.996;2023-03-01T10:32:03;60.20;;;28.20;;
77880;SDS011;67077;50.298;18.996;2023-03-01T10:35:31;60.80;;;28.60;;
77880;SDS011;67077;50.298;18.996;2023-03-01T10:42:38;52.70;;;25.80;;
77880;SDS011;67077;50.298;18.996;2023-03-01T10:45:43;50.90;;;24.60;;
77880;SDS011;67077;50.298;18.996;2023-03-01T10:48:43;44.60;;;21.60;;
77880;SDS011;67077;50.298;18.996;2023-03-01T10:52:26;50.20;;;23.30;;
77880;SDS011;67077;50.298;18.996;2023-03-01T10:56:11;55.80;;;23.30;;
77880;SDS011;67077;50.298;18.996;2023-03-01T11:01:31;43.60;;;20.80;;
77880;SDS011;67077;50.298;18.996;2023-03-01T11:04:08;46.30;;;21.80;;
77880;SDS011;67077;50.298;18.996;2023-03-01T11:06:39;42.50;;;20.20;;
77880;SDS011;67077;50.298;18.996;2023-03-01T11:13:08;49.30;;;22.70;;
77880;SDS011;67077;50.298;18.996;2023-03-01T11:16:05;47.30;;;22.00;;
77880;SDS011;67077;50.298;18.996;2023-03-01T11:18:44;45.20;;;22.00;;
77880;SDS011;67077;50.298;18.996;2023-03-01T11:24:42;47.10;;;22.40;;
77880;SDS011;67077;50.298;18.996;2023-03-01T11:29:43;35.80;;;17.00;;
77880;SDS011;67077;50.298;18.996;2023-03-01T11:32:47;41.80;;;19.50;;
77880;SDS011;67077;50.298;18.996;2023-03-01T11:35:41;39.50;;;18.30;;
77880;SDS011;67077;50.298;18.996;2023-03-01T11:38:32;37.80;;;18.10;;
77880;SDS011;67077;50.298;18.996;2023-03-01T11:41:08;37.30;;;18.70;;
77880;SDS011;67077;50.298;18.996;2023-03-01T11:49:14;41.20;;;19.50;;
77880;SDS011;67077;50.298;18.996;2023-03-01T11:54:53;40.50;;;18.70;;
77880;SDS011;67077;50.298;18.996;2023-03-01T12:12:42;29.60;;;15.10;;
77880;SDS011;67077;50.298;18.996;2023-03-01T12:21:18;34.20;;;16.10;;
77880;SDS011;67077;50.298;18.996;2023-03-01T12:24:04;34.80;;;17.30;;
77880;SDS011;67077;50.298;18.996;2023-03-01T12:27:21;30.50;;;15.20;;
77880;SDS011;67077;50.298;18.996;2023-03-01T12:41:46;35.20;;;17.00;;
77880;SDS011;67077;50.298;18.996;2023-03-01T12:44:45;35.30;;;16.90;;
77880;SDS011;67077;50.298;18.996;2023-03-01T12:50:47;40.60;;;19.10;;
77880;SDS011;67077;50.298;18.996;2023-03-01T12:55:54;37.30;;;18.80;;
77880;SDS011;67077;50.298;18.996;2023-03-01T12:58:35;35.10;;;17.50;;
77880;SDS011;67077;50.298;18.996;2023-03-01T13:01:20;32.20;;;16.70;;
77880;SDS011;67077;50.298;18.996;2023-03-01T13:15:25;27.80;;;14.60;;
77880;SDS011;67077;50.298;18.996;2023-03-01T13:18:00;27.70;;;14.20;;
77880;SDS011;67077;50.298;18.996;2023-03-01T13:20:53;31.00;;;15.10;;
77880;SDS011;67077;50.298;18.996;2023-03-01T13:23:51;26.40;;;14.20;;
77880;SDS011;67077;50.298;18.996;2023-03-01T13:26:23;25.20;;;12.80;;
77880;SDS011;67077;50.298;18.996;2023-03-01T13:38:36;27.20;;;12.30;;
77880;SDS011;67077;50.298;18.996;2023-03-01T13:46:48;24.70;;;11.50;;
77880;SDS011;67077;50.298;18.996;2023-03-01T13:49:21;23.70;;;12.10;;
77880;SDS011;67077;50.298;18.996;2023-03-01T13:51:50;22.80;;;11.30;;
77880;SDS011;67077;50.298;18.996;2023-03-01T13:54:23;21.80;;;11.30;;
77880;SDS011;67077;50.298;18.996;2023-03-01T13:56:55;23.50;;;12.10;;
77880;SDS011;67077;50.298;18.996;2023-03-01T13:59:24;19.30;;;11.10;;
77880;SDS011;67077;50.298;18.996;2023-03-01T14:01:57;23.90;;;10.60;;
77880;SDS011;67077;50.298;18.996;2023-03-01T14:04:27;21.90;;;10.60;;
77880;SDS011;67077;50.298;18.996;2023-03-01T14:09:54;19.50;;;9.70;;
77880;SDS011;67077;50.298;18.996;2023-03-01T14:18:06;19.10;;;9.90;;
77880;SDS011;67077;50.298;18.996;2023-03-01T14:20:38;22.70;;;10.70;;
77880;SDS011;67077;50.298;18.996;2023-03-01T14:23:17;22.70;;;10.40;;
77880;SDS011;67077;50.298;18.996;2023-03-01T14:25:52;21.90;;;10.90;;
77880;SDS011;67077;50.298;18.996;2023-03-01T14:28:21;31.30;;;13.30;;
77880;SDS011;67077;50.298;18.996;2023-03-01T14:30:56;23.60;;;12.60;;
77880;SDS011;67077;50.298;18.996;2023-03-01T14:35:59;25.90;;;13.20;;
77880;SDS011;67077;50.298;18.996;2023-03-01T14:38:33;26.60;;;13.10;;
77880;SDS011;67077;50.298;18.996;2023-03-01T14:41:06;27.20;;;13.60;;
77880;SDS011;67077;50.298;18.996;2023-03-01T14:43:37;27.30;;;14.00;;
77880;SDS011;67077;50.298;18.996;2023-03-01T14:46:16;33.90;;;15.30;;
77880;SDS011;67077;50.298;18.996;2023-03-01T14:48:49;32.10;;;15.70;;
77880;SDS011;67077;50.298;18.996;2023-03-01T14:51:19;34.30;;;15.90;;
77880;SDS011;67077;50.298;18.996;2023-03-01T14:53:46;36.10;;;16.60;;
77880;SDS011;67077;50.298;18.996;2023-03-01T14:56:13;35.90;;;16.80;;
77880;SDS011;67077;50.298;18.996;2023-03-01T14:58:46;36.00;;;16.70;;
77880;SDS011;67077;50.298;18.996;2023-03-01T15:01:17;32.50;;;15.20;;
77880;SDS011;67077;50.298;18.996;2023-03-01T15:03:45;33.60;;;16.20;;
77880;SDS011;67077;50.298;18.996;2023-03-01T15:06:15;36.00;;;17.40;;
77880;SDS011;67077;50.298;18.996;2023-03-01T15:08:49;36.70;;;16.90;;
77880;SDS011;67077;50.298;18.996;2023-03-01T15:11:22;33.90;;;16.10;;
77880;SDS011;67077;50.298;18.996;2023-03-01T15:13:58;32.30;;;17.10;;
77880;SDS011;67077;50.298;18.996;2023-03-01T15:16:31;35.60;;;16.80;;
77880;SDS011;67077;50.298;18.996;2023-03-01T15:19:04;35.90;;;16.20;;
77880;SDS011;67077;50.298;18.996;2023-03-01T15:21:35;33.70;;;17.10;;
77880;SDS011;67077;50.298;18.996;2023-03-01T15:24:06;36.50;;;17.10;;
77880;SDS011;67077;50.298;18.996;2023-03-01T15:29:23;35.00;;;17.60;;
77880;SDS011;67077;50.298;18.996;2023-03-01T15:37:51;32.20;;;16.10;;
77880;SDS011;67077;50.298;18.996;2023-03-01T15:46:28;34.00;;;17.40;;
77880;SDS011;67077;50.298;18.996;2023-03-01T15:51:55;36.70;;;17.30;;
77880;SDS011;67077;50.298;18.996;2023-03-01T15:55:20;39.70;;;19.10;;
77880;SDS011;67077;50.298;18.996;2023-03-01T15:57:50;38.30;;;17.70;;
77880;SDS011;67077;50.298;18.996;2023-03-01T16:00:27;37.20;;;18.00;;
77880;SDS011;67077;50.298;18.996;2023-03-01T16:02:58;37.90;;;18.40;;
77880;SDS011;67077;50.298;18.996;2023-03-01T16:05:26;39.60;;;18.30;;
77880;SDS011;67077;50.298;18.996;2023-03-01T16:07:55;43.60;;;19.60;;
77880;SDS011;67077;50.298;18.996;2023-03-01T16:10:21;39.60;;;19.20;;
77880;SDS011;67077;50.298;18.996;2023-03-01T16:12:49;48.10;;;20.80;;
77880;SDS011;67077;50.298;18.996;2023-03-01T16:15:23;47.50;;;21.80;;
77880;SDS011;67077;50.298;18.996;2023-03-01T16:17:51;47.10;;;22.50;;
77880;SDS011;67077;50.298;18.996;2023-03-01T16:20:18;45.80;;;21.60;;
77880;SDS011;67077;50.298;18.996;2023-03-01T16:22:45;45.10;;;20.20;;
77880;SDS011;67077;50.298;18.996;2023-03-01T16:25:13;40.70;;;19.70;;
77880;SDS011;67077;50.298;18.996;2023-03-01T16:27:42;42.10;;;20.00;;
77880;SDS011;67077;50.298;18.996;2023-03-01T16:30:10;48.20;;;20.90;;
77880;SDS011;67077;50.298;18.996;2023-03-01T16:32:39;48.50;;;22.40;;
77880;SDS011;67077;50.298;18.996;2023-03-01T16:35:07;54.50;;;25.00;;
77880;SDS011;67077;50.298;18.996;2023-03-01T16:37:36;73.10;;;32.10;;
77880;SDS011;67077;50.298;18.996;2023-03-01T16:40:04;76.60;;;32.10;;
77880;SDS011;67077;50.298;18.996;2023-03-01T16:42:38;75.80;;;31.50;;
77880;SDS011;67077;50.298;18.996;2023-03-01T16:45:05;64.90;;;27.60;;
77880;SDS011;67077;50.298;18.996;2023-03-01T16:47:33;66.90;;;26.40;;
77880;SDS011;67077;50.298;18.996;2023-03-01T16:50:00;58.20;;;24.90;;
77880;SDS011;67077;50.298;18.996;2023-03-01T16:52:29;53.30;;;21.80;;
77880;SDS011;67077;50.298;18.996;2023-03-01T16:54:57;53.20;;;23.50;;
77880;SDS011;67077;50.298;18.996;2023-03-01T16:57:24;53.30;;;23.20;;
77880;SDS011;67077;50.298;18.996;2023-03-01T16:59:52;52.50;;;22.60;;
77880;SDS011;67077;50.298;18.996;2023-03-01T17:02:20;52.20;;;21.80;;
77880;SDS011;67077;50.298;18.996;2023-03-01T17:04:54;54.70;;;22.40;;
77880;SDS011;67077;50.298;18.996;2023-03-01T17:07:21;58.60;;;22.50;;
77880;SDS011;67077;50.298;18.996;2023-03-01T17:09:49;70.80;;;26.60;;
77880;SDS011;67077;50.298;18.996;2023-03-01T17:12:16;55.10;;;21.70;;
77880;SDS011;67077;50.298;18.996;2023-03-01T17:14:42;58.40;;;23.20;;
77880;SDS011;67077;50.298;18.996;2023-03-01T17:17:10;57.30;;;22.90;;
77880;SDS011;67077;50.298;18.996;2023-03-01T17:19:37;55.80;;;22.70;;
77880;SDS011;67077;50.298;18.996;2023-03-01T17:22:08;63.00;;;25.10;;
77880;SDS011;67077;50.298;18.996;2023-03-01T17:24:35;64.00;;;26.50;;
77880;SDS011;67077;50.298;18.996;2023-03-01T17:27:04;66.60;;;26.40;;
77880;SDS011;67077;50.298;18.996;2023-03-01T17:29:32;61.80;;;27.40;;
77880;SDS011;67077;50.298;18.996;2023-03-01T17:32:00;66.40;;;27.50;;
77880;SDS011;67077;50.298;18.996;2023-03-01T17:34:27;67.30;;;27.60;;
77880;SDS011;67077;50.298;18.996;2023-03-01T17:36:57;61.60;;;26.50;;
77880;SDS011;67077;50.298;18.996;2023-03-01T17:39:24;74.70;;;31.50;;
77880;SDS011;67077;50.298;18.996;2023-03-01T17:41:54;75.60;;;32.60;;
77880;SDS011;67077;50.298;18.996;2023-03-01T17:44:21;82.70;;;33.30;;
77880;SDS011;67077;50.298;18.996;2023-03-01T17:46:47;87.90;;;37.50;;
77880;SDS011;67077;50.298;18.996;2023-03-01T17:49:14;88.70;;;37.90;;
77880;SDS011;67077;50.298;18.996;2023-03-01T17:51:43;96.60;;;41.90;;
77880;SDS011;67077;50.298;18.996;2023-03-01T17:54:11;96.40;;;42.10;;
77880;SDS011;67077;50.298;18.996;2023-03-01T17:56:37;117.30;;;47.20;;
77880;SDS011;67077;50.298;18.996;2023-03-01T17:59:06;121.40;;;49.60;;
77880;SDS011;67077;50.298;18.996;2023-03-01T18:01:33;111.00;;;44.80;;